createdAt,value
2019-03-28T00:00:28.244Z,101847.88
2019-03-28T00:03:32.316Z,101855.80
2019-03-28T00:06:36.067Z,101852.78
2019-03-28T00:09:40.214Z,101851.02
2019-03-28T00:12:44.337Z,101851.91
2019-03-28T00:15:48.644Z,101846.13
2019-03-28T00:18:53.400Z,101844.03
2019-03-28T00:21:57.161Z,101847.93
2019-03-28T00:25:05.356Z,101844.40
2019-03-28T00:28:09.109Z,101848.33
2019-03-28T00:31:12.862Z,101846.16
2019-03-28T00:34:17.000Z,101847.23
2019-03-28T00:37:21.020Z,101853.85
2019-03-28T00:40:24.833Z,101851.13
2019-03-28T00:43:28.597Z,101849.87
2019-03-28T00:46:32.381Z,101843.63
2019-03-28T00:49:36.113Z,101853.47
2019-03-28T00:52:40.266Z,101855.20
2019-03-28T00:55:44.013Z,101854.67
2019-03-28T00:58:48.072Z,101857.75
2019-03-28T01:01:52.182Z,101862.09
2019-03-28T01:04:56.254Z,101854.67
2019-03-28T01:08:00.002Z,101853.78
2019-03-28T01:11:04.888Z,101850.66
2019-03-28T01:14:08.684Z,101848.42
2019-03-28T01:17:13.098Z,101843.70
2019-03-28T01:20:16.863Z,101838.37
2019-03-28T01:23:21.092Z,101834.78
2019-03-28T01:26:26.466Z,101837.87
2019-03-28T01:29:30.262Z,101830.83
2019-03-28T01:32:34.294Z,101832.17
2019-03-28T01:35:38.029Z,101824.17
2019-03-28T01:38:42.202Z,101825.59
2019-03-28T01:41:46.280Z,101820.27
2019-03-28T01:44:50.038Z,101824.72
2019-03-28T01:47:53.823Z,101824.70
2019-03-28T01:50:57.642Z,101824.72
2019-03-28T01:54:02.095Z,101817.64
2019-03-28T01:57:11.200Z,101811.97
2019-03-28T02:00:12.754Z,101817.11
2019-03-28T02:03:16.485Z,101811.42
2019-03-28T02:06:21.516Z,101806.55
2019-03-28T02:09:25.610Z,101814.53
2019-03-28T02:12:29.333Z,101816.70
2019-03-28T02:15:33.584Z,101816.23
2019-03-28T02:18:37.336Z,101815.79
2019-03-28T02:21:41.526Z,101816.25
2019-03-28T02:24:46.131Z,101824.22
2019-03-28T02:27:51.189Z,101818.94
2019-03-28T02:30:55.111Z,101820.27
2019-03-28T02:33:58.874Z,101815.34
2019-03-28T02:37:03.044Z,101818.94
2019-03-28T02:40:07.512Z,101819.33
2019-03-28T02:43:11.236Z,101823.21
2019-03-28T02:46:15.012Z,101820.20
2019-03-28T02:49:19.671Z,101821.58
2019-03-28T02:52:24.514Z,101821.55
2019-03-28T02:55:28.606Z,101829.50
2019-03-28T02:58:32.729Z,101823.31
2019-03-28T03:01:36.454Z,101826.42
2019-03-28T03:04:40.175Z,101822.36
2019-03-28T03:07:44.951Z,101831.62
2019-03-28T03:10:48.683Z,101834.28
2019-03-28T03:13:52.450Z,101834.52
2019-03-28T03:16:56.879Z,101835.98
2019-03-28T03:20:00.581Z,101838.25
2019-03-28T03:23:04.320Z,101833.45
2019-03-28T03:26:08.038Z,101834.88
2019-03-28T03:29:11.784Z,101837.48
2019-03-28T03:32:15.868Z,101838.32
2019-03-28T03:35:19.868Z,101835.61
2019-03-28T03:38:24.377Z,101840.48
2019-03-28T03:41:28.098Z,101841.88
2019-03-28T03:44:32.213Z,101845.73
2019-03-28T03:47:36.341Z,101850.19
2019-03-28T03:50:40.080Z,101848.80
2019-03-28T03:53:43.892Z,101854.02
2019-03-28T03:56:47.668Z,101857.09
2019-03-28T03:59:51.430Z,101855.03
2019-03-28T04:02:55.155Z,101856.23
2019-03-28T04:05:59.245Z,101859.34
2019-03-28T04:09:03.964Z,101859.28
2019-03-28T04:12:08.141Z,101858.85
2019-03-28T04:15:12.001Z,101864.16
2019-03-28T04:18:16.520Z,101867.66
2019-03-28T04:21:21.041Z,101864.66
2019-03-28T04:24:25.045Z,101863.73
2019-03-28T04:27:28.790Z,101869.44
2019-03-28T04:30:32.523Z,101871.14
2019-03-28T04:33:36.963Z,101873.36
2019-03-28T04:36:41.225Z,101874.22
2019-03-28T04:39:44.974Z,101875.94
2019-03-28T04:42:48.728Z,101877.34
2019-03-28T04:45:52.874Z,101876.50
2019-03-28T04:48:56.940Z,101875.00
2019-03-28T04:52:00.668Z,101877.72
2019-03-28T04:55:04.716Z,101877.77
2019-03-28T04:58:08.460Z,101877.23
2019-03-28T05:01:12.173Z,101877.67
2019-03-28T05:04:17.290Z,101890.52
2019-03-28T05:07:21.424Z,101887.39
2019-03-28T05:10:25.145Z,101883.38
2019-03-28T05:13:29.290Z,101889.20
2019-03-28T05:16:33.360Z,101893.52
2019-03-28T05:19:37.118Z,101893.59
2019-03-28T05:22:40.853Z,101893.14
2019-03-28T05:25:45.323Z,101896.23
2019-03-28T05:28:57.501Z,101894.02
2019-03-28T05:31:56.328Z,101897.13
2019-03-28T05:35:00.690Z,101898.36
2019-03-28T05:38:04.839Z,101900.48
2019-03-28T05:41:08.563Z,101897.09
2019-03-28T05:44:12.688Z,101905.48
2019-03-28T05:47:16.915Z,101909.47
2019-03-28T05:50:20.988Z,101906.38
2019-03-28T05:53:25.306Z,101916.07
2019-03-28T05:56:29.495Z,101918.68
2019-03-28T05:59:33.224Z,101911.25
2019-03-28T06:02:37.239Z,101912.14
2019-03-28T06:05:41.763Z,101914.86
2019-03-28T06:08:45.922Z,101916.20
2019-03-28T06:11:52.845Z,101914.43
2019-03-28T06:14:56.112Z,101920.14
2019-03-28T06:17:59.869Z,101915.72
2019-03-28T06:21:03.977Z,101917.07
2019-03-28T06:24:07.781Z,101913.05
2019-03-28T06:27:11.524Z,101913.11
2019-03-28T06:30:15.540Z,101914.05
2019-03-28T06:33:19.274Z,101914.94
2019-03-28T06:36:23.304Z,101918.06
2019-03-28T06:39:27.975Z,101915.95
2019-03-28T06:42:31.724Z,101912.42
2019-03-28T06:45:35.450Z,101914.17
2019-03-28T06:48:39.178Z,101914.25
2019-03-28T06:51:43.738Z,101915.14
2019-03-28T06:54:47.453Z,101909.03
2019-03-28T06:57:51.583Z,101914.39
2019-03-28T07:00:56.056Z,101913.51
2019-03-28T07:04:00.154Z,101906.00
2019-03-28T07:07:04.835Z,101903.41
2019-03-28T07:10:08.882Z,101913.59
2019-03-28T07:13:13.072Z,101906.20
2019-03-28T07:16:17.114Z,101904.02
2019-03-28T07:19:21.258Z,101908.02
2019-03-28T07:22:25.028Z,101908.89
2019-03-28T07:25:29.997Z,101912.45
2019-03-28T07:28:33.828Z,101917.44
2019-03-28T07:31:38.012Z,101925.85
2019-03-28T07:34:42.129Z,101920.18
2019-03-28T07:37:46.221Z,101916.14
2019-03-28T07:40:50.408Z,101925.09
2019-03-28T07:43:54.146Z,101924.22
2019-03-28T07:46:57.926Z,101927.20
2019-03-28T07:50:01.807Z,101923.25
2019-03-28T07:53:05.707Z,101930.40
2019-03-28T07:56:09.809Z,101929.64
2019-03-28T07:59:14.228Z,101930.13
2019-03-28T08:02:17.948Z,101923.14
2019-03-28T08:05:22.141Z,101925.88
2019-03-28T08:08:38.255Z,101936.50
2019-03-28T08:11:31.957Z,101944.05
2019-03-28T08:14:36.355Z,101948.89
2019-03-28T08:17:40.112Z,101955.05
2019-03-28T08:20:44.152Z,101960.76
2019-03-28T08:23:47.900Z,101971.31
2019-03-28T08:26:51.993Z,101969.08
2019-03-28T08:29:57.838Z,101970.80
2019-03-28T08:33:02.646Z,101974.36
2019-03-28T08:36:06.769Z,101970.84
2019-03-28T08:39:10.901Z,101969.95
2019-03-28T08:42:14.982Z,101971.73
2019-03-28T08:45:18.699Z,101977.05
2019-03-28T08:48:22.732Z,101977.45
2019-03-28T08:51:27.458Z,101980.61
2019-03-28T08:54:32.495Z,101983.28
2019-03-28T08:57:36.601Z,101977.94
2019-03-28T09:00:51.729Z,101987.70
2019-03-28T09:03:46.048Z,101988.63
2019-03-28T09:06:49.806Z,101985.91
2019-03-28T09:09:54.497Z,101983.72
2019-03-28T09:12:58.228Z,101992.97
2019-03-28T09:16:01.950Z,101989.56
2019-03-28T09:19:07.951Z,101997.05
2019-03-28T09:22:11.705Z,101989.61
2019-03-28T09:25:17.073Z,101992.20
2019-03-28T09:28:20.816Z,101990.91
2019-03-28T09:31:24.636Z,101984.77
2019-03-28T09:34:29.345Z,101980.44
2019-03-28T09:37:33.078Z,101984.00
2019-03-28T09:40:37.193Z,101986.63
2019-03-28T09:43:54.624Z,101993.17
2019-03-28T09:46:47.404Z,101993.20
2019-03-28T09:49:51.144Z,101988.08
2019-03-28T09:52:54.932Z,101973.91
2019-03-28T09:55:59.442Z,101981.63
2019-03-28T09:59:03.185Z,101985.91
2019-03-28T10:02:06.918Z,101993.31
2019-03-28T10:05:12.646Z,101992.39
2019-03-28T10:08:16.820Z,101984.86
2019-03-28T10:11:20.671Z,101984.86
2019-03-28T10:14:24.771Z,101985.31
2019-03-28T10:17:29.444Z,101981.80
2019-03-28T10:20:34.024Z,101985.13
2019-03-28T10:23:39.977Z,101978.52
2019-03-28T10:26:43.868Z,101981.34
2019-03-28T10:29:47.960Z,101983.52
2019-03-28T10:32:52.045Z,101978.14
2019-03-28T10:35:56.621Z,101980.82
2019-03-28T10:39:00.824Z,101979.61
2019-03-28T10:42:04.879Z,101969.93
2019-03-28T10:45:09.108Z,101973.07
2019-03-28T10:48:13.194Z,101981.47
2019-03-28T10:51:17.670Z,101981.47
2019-03-28T10:54:21.773Z,101977.94
2019-03-28T10:57:32.030Z,101983.24
2019-03-28T11:00:31.892Z,101977.94
2019-03-28T11:03:36.046Z,101977.06
2019-03-28T11:06:39.795Z,101977.05
2019-03-28T11:09:43.603Z,101973.97
2019-03-28T11:12:48.091Z,101978.84
2019-03-28T11:15:51.837Z,101977.92
2019-03-28T11:18:55.926Z,101968.64
2019-03-28T11:21:59.663Z,101970.34
2019-03-28T11:25:03.861Z,101966.88
2019-03-28T11:28:08.151Z,101962.02
2019-03-28T11:31:11.842Z,101967.31
2019-03-28T11:34:16.301Z,101978.38
2019-03-28T11:37:26.424Z,101976.61
2019-03-28T11:40:26.286Z,101979.28
2019-03-28T11:43:30.032Z,101979.27
2019-03-28T11:46:34.117Z,101977.94
2019-03-28T11:49:37.858Z,101984.14
2019-03-28T11:52:42.797Z,101981.03
2019-03-28T11:55:48.866Z,101975.30
2019-03-28T11:58:52.836Z,101978.82
2019-03-28T12:02:00.595Z,101977.48
2019-03-28T12:05:02.572Z,101978.81
2019-03-28T12:08:06.382Z,101980.13
2019-03-28T12:11:10.612Z,101976.57
2019-03-28T12:14:14.724Z,101967.73
2019-03-28T12:17:18.470Z,101967.72
2019-03-28T12:20:22.423Z,101963.76
2019-03-28T12:23:26.590Z,101963.75
2019-03-28T12:26:30.340Z,101971.26
2019-03-28T12:29:35.770Z,101968.59
2019-03-28T12:32:39.791Z,101966.86
2019-03-28T12:35:43.547Z,101966.40
2019-03-28T12:38:47.277Z,101964.17
2019-03-28T12:41:51.334Z,101957.99
2019-03-28T12:44:57.265Z,101958.87
2019-03-28T12:48:00.734Z,101961.54
2019-03-28T12:51:05.231Z,101954.44
2019-03-28T12:54:09.334Z,101953.55
2019-03-28T12:57:14.512Z,101953.09
2019-03-28T13:00:33.193Z,101954.86
2019-03-28T13:03:45.476Z,101950.91
2019-03-28T13:06:43.731Z,101950.89
2019-03-28T13:09:47.828Z,101953.14
2019-03-28T13:12:52.694Z,101953.12
2019-03-28T13:15:56.424Z,101950.47
2019-03-28T13:19:00.183Z,101948.25
2019-03-28T13:22:04.184Z,101944.30
2019-03-28T13:25:08.306Z,101934.98
2019-03-28T13:28:12.048Z,101938.53
2019-03-28T13:31:15.793Z,101941.64
2019-03-28T13:34:19.889Z,101934.98
2019-03-28T13:37:23.999Z,101933.66
2019-03-28T13:40:27.749Z,101936.31
2019-03-28T13:43:31.466Z,101931.47
2019-03-28T13:46:35.196Z,101930.58
2019-03-28T13:49:39.721Z,101931.92
2019-03-28T13:52:43.431Z,101925.72
2019-03-28T13:55:47.165Z,101930.56
2019-03-28T13:58:51.251Z,101925.72
2019-03-28T14:01:56.023Z,101919.52
2019-03-28T14:05:00.130Z,101922.63
2019-03-28T14:08:04.385Z,101915.09
2019-03-28T14:11:08.127Z,101920.41
2019-03-28T14:14:12.208Z,101910.67
2019-03-28T14:17:16.368Z,101909.34
2019-03-28T14:20:22.343Z,101912.90
2019-03-28T14:23:26.035Z,101910.67
2019-03-28T14:26:30.232Z,101911.56
2019-03-28T14:29:34.229Z,101906.23
2019-03-28T14:32:52.188Z,101902.27
2019-03-28T14:35:45.192Z,101900.95
2019-03-28T14:38:48.935Z,101900.50
2019-03-28T14:41:52.686Z,101900.94
2019-03-28T14:44:56.396Z,101898.29
2019-03-28T14:48:01.652Z,101900.52
2019-03-28T14:51:05.367Z,101896.08
2019-03-28T14:54:09.106Z,101890.33
2019-03-28T14:57:14.319Z,101896.50
2019-03-28T15:00:51.768Z,101894.31
2019-03-28T15:03:56.584Z,101885.92
2019-03-28T15:07:00.304Z,101893.69
2019-03-28T15:10:05.550Z,101894.22
2019-03-28T15:13:09.318Z,101892.13
2019-03-28T15:16:13.064Z,101888.38
2019-03-28T15:19:17.137Z,101881.36
2019-03-28T15:22:21.262Z,101888.03
2019-03-28T15:25:26.464Z,101889.39
2019-03-28T15:28:30.310Z,101887.63
2019-03-28T15:31:34.139Z,101892.52
2019-03-28T15:34:37.958Z,101881.92
2019-03-28T15:37:41.723Z,101887.20
2019-03-28T15:40:46.152Z,101891.22
2019-03-28T15:43:49.984Z,101878.79
2019-03-28T15:46:56.726Z,101880.13
2019-03-28T15:50:00.438Z,101881.47
2019-03-28T15:53:04.179Z,101888.98
2019-03-28T15:56:08.230Z,101883.24
2019-03-28T15:59:11.976Z,101883.91
2019-03-28T16:02:16.112Z,101886.73
2019-03-28T16:05:19.871Z,101884.56
2019-03-28T16:08:23.611Z,101884.56
2019-03-28T16:11:29.612Z,101883.25
2019-03-28T16:14:33.776Z,101882.38
2019-03-28T16:17:37.509Z,101884.58
2019-03-28T16:20:41.227Z,101885.44
2019-03-28T16:23:44.965Z,101878.81
2019-03-28T16:26:49.098Z,101883.69
2019-03-28T16:29:54.400Z,101879.25
2019-03-28T16:32:59.434Z,101885.44
2019-03-28T16:36:03.979Z,101879.72
2019-03-28T16:39:08.265Z,101876.61
2019-03-28T16:42:13.923Z,101877.05
2019-03-28T16:45:17.939Z,101876.59
2019-03-28T16:48:21.948Z,101884.13
2019-03-28T16:51:26.215Z,101892.52
2019-03-28T16:54:30.121Z,101890.77
2019-03-28T16:57:33.858Z,101886.78
2019-03-28T17:00:39.188Z,101879.27
2019-03-28T17:03:43.309Z,101878.37
2019-03-28T17:06:47.557Z,101882.34
2019-03-28T17:09:51.600Z,101884.09
2019-03-28T17:12:55.331Z,101876.60
2019-03-28T17:15:59.399Z,101870.84
2019-03-28T17:19:03.834Z,101874.84
2019-03-28T17:22:09.425Z,101872.61
2019-03-28T17:25:13.703Z,101870.83
2019-03-28T17:28:17.368Z,101877.04
2019-03-28T17:31:21.096Z,101881.00
2019-03-28T17:34:34.594Z,101880.98
2019-03-28T17:37:30.480Z,101879.20
2019-03-28T17:40:36.757Z,101884.98
2019-03-28T17:43:40.119Z,101881.88
2019-03-28T17:46:44.841Z,101886.75
2019-03-28T17:49:48.763Z,101884.07
2019-03-28T17:52:53.660Z,101890.29
2019-03-28T17:55:57.523Z,101893.79
2019-03-28T17:59:01.246Z,101894.64
2019-03-28T18:02:04.953Z,101891.11
2019-03-28T18:05:10.869Z,101886.22
2019-03-28T18:08:14.469Z,101882.23
2019-03-28T18:11:18.189Z,101886.22
2019-03-28T18:14:23.618Z,101886.21
2019-03-28T18:17:28.354Z,101892.81
2019-03-28T18:20:32.079Z,101890.61
2019-03-28T18:23:35.800Z,101895.01
2019-03-28T18:26:39.533Z,101895.92
2019-03-28T18:29:43.264Z,101901.23
2019-03-28T18:32:49.871Z,101899.91
2019-03-28T18:35:52.644Z,101899.84
2019-03-28T18:38:57.036Z,101902.09
2019-03-28T18:42:01.164Z,101904.28
2019-03-28T18:45:05.717Z,101895.86
2019-03-28T18:48:11.148Z,101900.30
2019-03-28T18:51:16.127Z,101901.64
2019-03-28T18:54:20.468Z,101897.18
2019-03-28T18:57:24.322Z,101898.05
2019-03-28T19:00:28.138Z,101898.50
2019-03-28T19:03:32.316Z,101903.33
2019-03-28T19:06:36.047Z,101895.84
2019-03-28T19:09:39.796Z,101899.33
2019-03-28T19:12:43.713Z,101888.80
2019-03-28T19:15:49.792Z,101891.44
2019-03-28T19:18:54.468Z,101893.17
2019-03-28T19:21:59.008Z,101890.06
2019-03-28T19:25:03.194Z,101886.53
2019-03-28T19:28:07.763Z,101900.66
2019-03-28T19:31:11.760Z,101895.71
2019-03-28T19:34:15.851Z,101896.59
2019-03-28T19:37:22.899Z,101905.40
2019-03-28T19:40:27.194Z,101900.19
2019-03-28T19:43:32.177Z,101903.30
2019-03-28T19:46:35.895Z,101886.98
2019-03-28T19:49:40.012Z,101886.08
2019-03-28T19:52:43.718Z,101892.30
2019-03-28T19:55:47.451Z,101891.77
2019-03-28T19:58:51.707Z,101884.23
2019-03-28T20:01:55.535Z,101884.20
2019-03-28T20:04:59.603Z,101884.30
2019-03-28T20:08:14.668Z,101884.77
2019-03-28T20:11:10.745Z,101886.12
2019-03-28T20:14:15.775Z,101885.61
2019-03-28T20:17:19.756Z,101885.09
2019-03-28T20:20:23.679Z,101883.35
2019-03-28T20:23:27.411Z,101889.13
2019-03-28T20:26:31.127Z,101887.37
2019-03-28T20:29:35.185Z,101892.64
2019-03-28T20:32:39.568Z,101900.48
2019-03-28T20:35:43.291Z,101896.48
2019-03-28T20:38:53.383Z,101905.32
2019-03-28T20:41:53.184Z,101896.02
2019-03-28T20:44:56.913Z,101902.56
2019-03-28T20:48:00.651Z,101899.93
2019-03-28T20:51:04.366Z,101894.17
2019-03-28T20:54:08.166Z,101888.89
2019-03-28T20:57:11.921Z,101894.98
2019-03-28T21:00:22.771Z,101894.33
2019-03-28T21:03:26.982Z,101887.65
2019-03-28T21:06:31.166Z,101891.06
2019-03-28T21:09:35.265Z,101894.14
2019-03-28T21:12:39.095Z,101891.34
2019-03-28T21:15:42.846Z,101893.42
2019-03-28T21:18:46.562Z,101890.27
2019-03-28T21:21:50.329Z,101892.36
2019-03-28T21:24:54.427Z,101898.97
2019-03-28T21:27:58.848Z,101901.59
2019-03-28T21:31:04.286Z,101894.02
2019-03-28T21:34:09.082Z,101895.75
2019-03-28T21:37:13.234Z,101897.33
2019-03-28T21:40:16.980Z,101893.88
2019-03-28T21:43:20.754Z,101898.13
2019-03-28T21:46:24.467Z,101900.30
2019-03-28T21:49:28.494Z,101903.80
2019-03-28T21:52:32.832Z,101901.98
2019-03-28T21:55:36.595Z,101902.76
2019-03-28T21:58:40.730Z,101903.16
2019-03-28T22:01:44.437Z,101905.39
2019-03-28T22:04:48.188Z,101900.63
2019-03-28T22:07:51.907Z,101902.91
2019-03-28T22:10:56.772Z,101912.20
2019-03-28T22:14:00.703Z,101909.59
2019-03-28T22:17:04.705Z,101908.67
2019-03-28T22:20:09.020Z,101906.59
2019-03-28T22:23:13.748Z,101907.55
2019-03-28T22:26:17.738Z,101902.61
2019-03-28T22:29:21.454Z,101909.47
2019-03-28T22:32:25.203Z,101908.18
2019-03-28T22:35:29.290Z,101912.09
2019-03-28T22:38:33.415Z,101906.79
2019-03-28T22:41:37.927Z,101904.52
2019-03-28T22:44:41.674Z,101896.89
2019-03-28T22:47:45.886Z,101901.73
2019-03-28T22:50:50.151Z,101898.88
2019-03-28T22:53:54.135Z,101890.61
2019-03-28T22:56:58.199Z,101891.11
2019-03-28T23:03:01.901Z,101895.17
2019-03-28T23:06:05.739Z,101891.05
2019-03-28T23:09:09.483Z,101895.06
2019-03-28T23:12:13.713Z,101894.14
2019-03-28T23:15:17.486Z,101897.52
2019-03-28T23:18:21.205Z,101897.17
2019-03-28T23:21:26.132Z,101904.82
2019-03-28T23:24:29.864Z,101904.86
2019-03-28T23:27:33.642Z,101894.59
2019-03-28T23:30:37.928Z,101908.27
2019-03-28T23:33:42.098Z,101900.98
2019-03-28T23:36:46.263Z,101898.58
2019-03-28T23:39:49.967Z,101892.81
2019-03-28T23:42:53.692Z,101893.43
2019-03-28T23:45:57.457Z,101896.80
2019-03-28T23:49:01.498Z,101889.39
2019-03-28T23:52:05.704Z,101893.27
2019-03-28T23:55:10.601Z,101890.33
2019-03-28T23:58:14.340Z,101894.23
